createdAt,value
2022-07-26T00:00:44.552Z,1.50
2022-07-26T00:04:47.434Z,1.27
2022-07-26T00:08:49.399Z,1.30
2022-07-26T00:12:50.935Z,1.33
2022-07-26T00:16:53.008Z,1.30
2022-07-26T00:20:56.026Z,1.30
2022-07-26T00:24:57.559Z,1.50
2022-07-26T00:28:59.069Z,1.30
2022-07-26T00:33:00.618Z,1.30
2022-07-26T00:37:03.591Z,1.83
2022-07-26T00:41:05.807Z,1.53
2022-07-26T00:45:09.374Z,1.57
2022-07-26T00:49:12.015Z,1.23
2022-07-26T00:53:15.854Z,1.37
2022-07-26T00:57:17.560Z,1.30
2022-07-26T01:01:19.284Z,1.40
2022-07-26T01:05:21.995Z,1.30
2022-07-26T01:09:24.918Z,1.40
2022-07-26T01:13:28.159Z,1.67
2022-07-26T01:17:32.212Z,1.77
2022-07-26T01:21:39.395Z,1.37
2022-07-26T01:25:43.658Z,1.33
2022-07-26T01:29:47.583Z,1.80
2022-07-26T01:33:49.155Z,1.57
2022-07-26T01:37:53.351Z,1.43
2022-07-26T01:41:55.087Z,1.83
2022-07-26T01:45:56.916Z,1.80
2022-07-26T01:49:58.447Z,1.50
2022-07-26T01:54:02.000Z,1.80
2022-07-26T01:58:04.531Z,1.60
2022-07-26T02:02:06.162Z,1.63
2022-07-26T02:06:08.372Z,1.90
2022-07-26T02:10:13.584Z,1.60
2022-07-26T02:14:25.727Z,1.63
2022-07-26T02:18:29.318Z,1.93
2022-07-26T02:22:30.950Z,1.70
2022-07-26T02:26:34.137Z,1.60
2022-07-26T02:30:35.677Z,1.77
2022-07-26T02:34:37.414Z,1.77
2022-07-26T02:38:38.902Z,1.80
2022-07-26T02:42:42.034Z,1.73
2022-07-26T02:46:43.616Z,2.33
2022-07-26T02:50:45.203Z,2.07
2022-07-26T02:54:46.875Z,1.97
2022-07-26T02:58:49.894Z,1.60
2022-07-26T03:02:51.882Z,1.93
2022-07-26T03:06:53.601Z,1.97
2022-07-26T03:10:55.399Z,1.70
2022-07-26T03:14:58.257Z,1.57
2022-07-26T03:19:00.162Z,1.93
2022-07-26T03:23:01.652Z,2.20
2022-07-26T03:27:03.607Z,2.07
2022-07-26T03:31:06.468Z,2.00
2022-07-26T03:35:09.461Z,2.13
2022-07-26T03:39:13.270Z,2.00
2022-07-26T03:43:14.957Z,1.93
2022-07-26T03:47:17.931Z,1.80
2022-07-26T03:51:19.598Z,2.00
2022-07-26T03:55:21.279Z,2.23
2022-07-26T03:59:22.855Z,1.97
2022-07-26T04:03:25.827Z,1.80
2022-07-26T04:07:27.441Z,1.90
2022-07-26T04:11:29.070Z,1.90
2022-07-26T04:15:30.695Z,2.40
2022-07-26T04:19:33.580Z,2.20
2022-07-26T04:23:41.563Z,1.80
2022-07-26T04:27:43.404Z,1.93
2022-07-26T04:31:44.887Z,1.90
2022-07-26T04:35:47.767Z,2.10
2022-07-26T04:39:54.461Z,2.07
2022-07-26T04:43:56.503Z,2.37
2022-07-26T04:47:58.363Z,2.53
2022-07-26T04:52:01.487Z,2.10
2022-07-26T04:56:03.354Z,2.40
2022-07-26T05:00:23.417Z,2.60
2022-07-26T05:04:25.636Z,2.37
2022-07-26T05:08:28.636Z,2.50
2022-07-26T05:12:30.081Z,2.30
2022-07-26T05:16:31.842Z,2.13
2022-07-26T05:20:34.272Z,3.00
2022-07-26T05:24:37.051Z,2.37
2022-07-26T05:28:39.064Z,2.80
2022-07-26T05:32:40.518Z,2.40
2022-07-26T05:36:42.244Z,3.03
2022-07-26T05:40:50.303Z,2.77
2022-07-26T05:44:52.284Z,3.20
2022-07-26T05:48:54.057Z,3.30
2022-07-26T05:52:55.567Z,3.37
2022-07-26T05:56:58.791Z,3.13
2022-07-26T06:01:00.263Z,3.23
2022-07-26T06:05:01.779Z,3.73
2022-07-26T06:09:03.778Z,3.63
2022-07-26T06:13:06.787Z,3.57
2022-07-26T06:17:08.538Z,3.93
2022-07-26T06:21:10.102Z,4.23
2022-07-26T06:25:12.390Z,4.90
2022-07-26T06:29:15.250Z,4.20
2022-07-26T06:33:16.877Z,4.50
2022-07-26T06:37:18.355Z,4.30
2022-07-26T06:41:19.961Z,4.20
2022-07-26T06:45:23.186Z,4.23
2022-07-26T06:49:25.172Z,3.77
2022-07-26T06:53:26.738Z,3.90
2022-07-26T06:57:28.358Z,3.40
2022-07-26T07:01:57.780Z,4.47
2022-07-26T07:05:52.911Z,3.60
2022-07-26T07:09:54.673Z,4.00
2022-07-26T07:13:56.183Z,3.73
2022-07-26T07:17:59.070Z,4.27
2022-07-26T07:22:01.411Z,4.13
2022-07-26T07:26:03.041Z,3.90
2022-07-26T07:30:05.953Z,4.80
2022-07-26T07:34:11.033Z,4.70
2022-07-26T07:38:12.862Z,4.40
2022-07-26T07:42:14.348Z,4.37
2022-07-26T07:46:16.458Z,5.33
2022-07-26T07:50:19.510Z,5.27
2022-07-26T07:54:22.287Z,5.90
2022-07-26T07:58:24.084Z,6.53
2022-07-26T08:02:25.565Z,6.87
2022-07-26T08:06:28.408Z,6.60
2022-07-26T08:10:30.366Z,6.53
2022-07-26T08:14:31.840Z,6.67
2022-07-26T08:18:33.328Z,6.67
2022-07-26T08:22:36.512Z,7.17
2022-07-26T08:26:38.007Z,7.57
2022-07-26T08:30:39.677Z,7.40
2022-07-26T08:34:41.564Z,8.43
2022-07-26T08:38:47.154Z,9.03
2022-07-26T08:42:52.583Z,9.23
2022-07-26T08:46:54.378Z,8.13
2022-07-26T08:50:56.394Z,7.70
2022-07-26T08:54:59.233Z,7.47
2022-07-26T08:59:06.682Z,7.40
2022-07-26T09:03:23.462Z,7.10
2022-07-26T09:07:24.980Z,6.67
2022-07-26T09:11:31.279Z,6.43
2022-07-26T09:15:32.734Z,7.03
2022-07-26T09:19:34.298Z,5.70
2022-07-26T09:23:39.626Z,6.00
2022-07-26T09:27:42.565Z,5.07
2022-07-26T09:31:44.121Z,5.37
2022-07-26T09:36:01.040Z,4.75
2022-07-26T09:40:05.543Z,4.63
2022-07-26T09:44:22.237Z,3.63
2022-07-26T09:48:33.103Z,4.20
2022-07-26T09:52:57.717Z,4.30
2022-07-26T09:57:00.271Z,3.42
2022-07-26T10:01:03.568Z,4.00
2022-07-26T10:05:06.320Z,4.65
2022-07-26T10:09:09.675Z,4.20
2022-07-26T10:13:11.669Z,4.90
2022-07-26T10:17:49.409Z,5.00
2022-07-26T10:21:51.104Z,4.30
2022-07-26T10:25:52.963Z,4.00
2022-07-26T10:30:23.012Z,4.00
2022-07-26T10:34:34.460Z,4.20
2022-07-26T10:38:37.544Z,3.50
2022-07-26T10:42:43.303Z,3.50
2022-07-26T10:47:15.581Z,3.77
2022-07-26T10:51:26.448Z,3.10
2022-07-26T10:55:28.045Z,3.00
2022-07-26T10:59:53.611Z,3.10
2022-07-26T11:03:52.775Z,2.63
2022-07-26T11:08:02.203Z,3.10
2022-07-26T11:12:15.411Z,2.78
2022-07-26T11:16:16.900Z,2.50
2022-07-26T11:20:29.402Z,2.72
2022-07-26T11:24:33.945Z,2.47
2022-07-26T11:28:46.580Z,2.63
2022-07-26T11:32:52.504Z,2.90
2022-07-26T11:36:55.649Z,3.57
2022-07-26T11:40:58.464Z,3.00
2022-07-26T11:45:00.115Z,3.07
2022-07-26T11:49:01.898Z,2.50
2022-07-26T11:53:20.916Z,1.97
2022-07-26T11:57:28.850Z,1.87
2022-07-26T12:01:30.604Z,1.87
2022-07-26T12:05:32.164Z,2.10
2022-07-26T12:09:35.152Z,2.20
2022-07-26T12:13:55.826Z,2.70
2022-07-26T12:17:59.734Z,2.60
2022-07-26T12:22:12.074Z,2.30
2022-07-26T12:26:25.128Z,1.90
2022-07-26T12:30:30.974Z,1.90
2022-07-26T12:34:33.667Z,2.77
2022-07-26T12:38:39.112Z,2.20
2022-07-26T12:42:42.414Z,2.27
2022-07-26T12:46:45.379Z,2.80
2022-07-26T12:50:46.881Z,2.97
2022-07-26T12:54:49.807Z,2.60
2022-07-26T12:58:51.447Z,2.50
2022-07-26T13:02:54.329Z,2.40
2022-07-26T13:06:56.875Z,2.60
2022-07-26T13:11:00.173Z,2.63
2022-07-26T13:15:01.798Z,2.77
2022-07-26T13:19:04.778Z,2.43
2022-07-26T13:23:06.936Z,2.40
2022-07-26T13:27:10.128Z,2.57
2022-07-26T13:31:12.437Z,2.23
2022-07-26T13:35:15.346Z,2.47
2022-07-26T13:39:16.927Z,2.30
2022-07-26T13:43:18.634Z,2.00
2022-07-26T13:47:20.132Z,2.10
2022-07-26T13:51:23.222Z,1.83
2022-07-26T13:55:25.345Z,1.63
2022-07-26T13:59:27.651Z,2.05
2022-07-26T14:03:34.978Z,1.80
2022-07-26T14:07:38.262Z,1.70
2022-07-26T14:11:40.632Z,1.90
2022-07-26T14:15:42.149Z,2.05
2022-07-26T14:19:43.772Z,2.10
2022-07-26T14:23:46.733Z,1.92
2022-07-26T14:27:48.613Z,2.47
2022-07-26T14:31:50.326Z,1.67
2022-07-26T14:35:51.801Z,1.20
2022-07-26T14:39:54.619Z,1.23
2022-07-26T14:43:56.080Z,1.33
2022-07-26T14:47:57.563Z,1.37
2022-07-26T14:51:59.085Z,1.27
2022-07-26T14:56:02.086Z,1.50
2022-07-26T15:00:05.353Z,1.40
2022-07-26T15:04:07.166Z,1.40
2022-07-26T15:08:08.688Z,1.50
2022-07-26T15:12:11.538Z,1.50
2022-07-26T15:16:14.440Z,1.47
2022-07-26T15:20:16.041Z,1.50
2022-07-26T15:24:17.761Z,1.47
2022-07-26T15:28:20.764Z,1.40
2022-07-26T15:32:22.355Z,1.03
2022-07-26T15:36:23.864Z,1.20
2022-07-26T15:40:25.458Z,1.53
2022-07-26T15:44:28.340Z,1.37
2022-07-26T15:48:29.841Z,1.20
2022-07-26T15:52:31.331Z,1.43
2022-07-26T15:56:32.798Z,1.40
2022-07-26T16:00:35.811Z,1.40
2022-07-26T16:04:37.539Z,1.40
2022-07-26T16:08:52.741Z,1.13
2022-07-26T16:13:00.549Z,1.40
2022-07-26T16:17:03.581Z,1.00
2022-07-26T16:21:05.175Z,1.23
2022-07-26T16:25:08.142Z,1.00
2022-07-26T16:29:09.871Z,0.90
2022-07-26T16:33:12.957Z,0.90
2022-07-26T16:37:14.432Z,0.90
2022-07-26T16:41:16.813Z,1.00
2022-07-26T16:45:19.531Z,1.07
2022-07-26T16:49:22.566Z,0.93
2022-07-26T16:53:24.152Z,0.90
2022-07-26T16:57:25.722Z,0.90
2022-07-26T17:01:27.433Z,1.57
2022-07-26T17:05:30.365Z,0.80
2022-07-26T17:09:32.887Z,0.80
2022-07-26T17:13:34.531Z,1.00
2022-07-26T17:17:36.285Z,0.90
2022-07-26T17:21:39.300Z,0.90
2022-07-26T17:25:40.813Z,0.77
2022-07-26T17:29:42.782Z,0.90
2022-07-26T17:33:44.395Z,0.83
2022-07-26T17:37:48.350Z,1.00
2022-07-26T17:41:49.923Z,1.10
2022-07-26T17:45:51.508Z,2.30
2022-07-26T17:49:52.999Z,1.10
2022-07-26T17:53:55.803Z,1.00
2022-07-26T17:57:57.291Z,0.97
2022-07-26T18:01:58.857Z,0.90
2022-07-26T18:06:00.465Z,0.80
2022-07-26T18:10:04.079Z,0.90
2022-07-26T18:14:05.934Z,0.80
2022-07-26T18:18:07.600Z,0.90
2022-07-26T18:22:09.103Z,1.00
2022-07-26T18:26:12.147Z,1.00
2022-07-26T18:30:13.760Z,0.90
2022-07-26T18:34:15.419Z,1.70
2022-07-26T18:38:17.100Z,1.40
2022-07-26T18:42:20.000Z,1.20
2022-07-26T18:46:21.535Z,0.90
2022-07-26T18:50:23.211Z,1.23
2022-07-26T18:54:25.033Z,1.20
2022-07-26T18:58:28.123Z,0.83
2022-07-26T19:02:29.726Z,1.10
2022-07-26T19:06:31.375Z,1.10
2022-07-26T19:10:33.100Z,1.10
2022-07-26T19:14:35.963Z,1.33
2022-07-26T19:18:37.542Z,1.20
2022-07-26T19:22:39.923Z,1.13
2022-07-26T19:26:42.468Z,1.00
2022-07-26T19:30:45.694Z,1.30
2022-07-26T19:34:47.227Z,1.40
2022-07-26T19:38:48.924Z,1.20
2022-07-26T19:42:50.603Z,1.80
2022-07-26T19:46:57.441Z,1.37
2022-07-26T19:50:59.267Z,1.30
2022-07-26T19:55:00.819Z,1.50
2022-07-26T19:59:02.590Z,1.40
2022-07-26T20:03:05.489Z,1.30
2022-07-26T20:07:07.310Z,1.37
2022-07-26T20:11:08.778Z,1.53
2022-07-26T20:15:11.011Z,1.40
2022-07-26T20:19:14.160Z,1.60
2022-07-26T20:23:15.848Z,1.30
2022-07-26T20:27:17.354Z,1.80
2022-07-26T20:31:18.953Z,1.70
2022-07-26T20:35:22.021Z,1.50
2022-07-26T20:39:23.495Z,1.53
2022-07-26T20:43:25.580Z,1.70
2022-07-26T20:47:29.205Z,1.63
2022-07-26T20:51:32.174Z,1.43
2022-07-26T20:55:33.818Z,1.80
2022-07-26T20:59:35.322Z,1.53
2022-07-26T21:03:36.815Z,1.90
2022-07-26T21:07:55.709Z,1.80
2022-07-26T21:12:00.881Z,1.83
2022-07-26T21:16:02.390Z,1.70
2022-07-26T21:20:05.466Z,1.90
2022-07-26T21:24:08.938Z,1.57
2022-07-26T21:28:10.394Z,1.47
2022-07-26T21:32:11.896Z,1.50
2022-07-26T21:36:13.388Z,1.53
2022-07-26T21:40:16.230Z,1.67
2022-07-26T21:44:17.895Z,2.00
2022-07-26T21:48:19.633Z,1.70
2022-07-26T21:52:21.232Z,1.90
2022-07-26T21:56:24.153Z,1.90
2022-07-26T22:00:25.741Z,1.70
2022-07-26T22:04:27.212Z,2.00
2022-07-26T22:08:28.939Z,2.23
2022-07-26T22:12:31.743Z,1.83
2022-07-26T22:16:33.236Z,1.77
2022-07-26T22:20:35.355Z,1.47
2022-07-26T22:24:36.804Z,1.40
2022-07-26T22:28:39.663Z,1.50
2022-07-26T22:32:41.094Z,1.80
2022-07-26T22:36:45.542Z,1.40
2022-07-26T22:40:47.198Z,1.57
2022-07-26T22:44:50.002Z,1.37
2022-07-26T22:48:51.511Z,1.60
2022-07-26T22:52:53.098Z,1.30
2022-07-26T22:56:54.578Z,1.47
2022-07-26T23:00:58.850Z,1.53
2022-07-26T23:05:00.382Z,1.60
2022-07-26T23:09:03.787Z,1.47
2022-07-26T23:13:05.243Z,1.47
2022-07-26T23:17:09.058Z,1.60
2022-07-26T23:21:10.527Z,1.20
2022-07-26T23:25:12.042Z,1.57
2022-07-26T23:29:14.092Z,1.50
2022-07-26T23:33:17.159Z,1.33
2022-07-26T23:37:38.790Z,1.23
2022-07-26T23:41:40.286Z,1.30
2022-07-26T23:45:41.749Z,1.30
2022-07-26T23:49:46.010Z,1.60
2022-07-26T23:53:47.509Z,1.30
2022-07-26T23:57:48.954Z,1.10
